createdAt,value
2016-11-15T00:00:25.295Z,0
2016-11-15T00:01:35.577Z,0
2016-11-15T00:02:45.902Z,0
2016-11-15T00:03:55.864Z,0
2016-11-15T00:05:06.226Z,0
2016-11-15T00:06:16.514Z,0
2016-11-15T00:07:26.513Z,0
2016-11-15T00:08:36.829Z,0
2016-11-15T00:09:46.845Z,0
2016-11-15T00:10:56.869Z,0
2016-11-15T00:12:07.153Z,0
2016-11-15T00:13:17.432Z,0
2016-11-15T00:14:27.448Z,0
2016-11-15T00:15:37.757Z,0
2016-11-15T00:16:47.752Z,0
2016-11-15T00:17:57.781Z,0
2016-11-15T00:19:08.138Z,0
2016-11-15T00:20:18.432Z,0
2016-11-15T00:21:28.784Z,0
2016-11-15T00:22:38.490Z,0
2016-11-15T00:23:48.508Z,0
2016-11-15T00:24:58.505Z,0
2016-11-15T00:26:08.832Z,0
2016-11-15T00:27:18.754Z,0
2016-11-15T00:28:29.050Z,0
2016-11-15T00:29:39.028Z,0
2016-11-15T00:30:49.077Z,0
2016-11-15T00:31:59.059Z,0
2016-11-15T00:33:09.092Z,0
2016-11-15T00:34:19.082Z,0
2016-11-15T00:35:29.062Z,0
2016-11-15T00:36:39.365Z,0
2016-11-15T00:37:49.660Z,0
2016-11-15T00:38:59.973Z,0
2016-11-15T00:40:09.969Z,0
2016-11-15T00:41:20.279Z,0
2016-11-15T00:42:30.588Z,0
2016-11-15T00:43:40.894Z,0
2016-11-15T00:44:50.558Z,0
2016-11-15T00:46:00.552Z,0
2016-11-15T00:47:10.553Z,0
2016-11-15T00:48:20.549Z,0
2016-11-15T00:49:30.880Z,0
2016-11-15T00:50:40.861Z,0
2016-11-15T00:51:51.163Z,0
2016-11-15T00:53:01.523Z,0
2016-11-15T00:54:11.824Z,0
2016-11-15T00:55:21.808Z,0
2016-11-15T00:56:31.825Z,0
2016-11-15T00:57:41.826Z,0
2016-11-15T00:58:51.812Z,0
2016-11-15T01:00:01.822Z,0
2016-11-15T01:01:11.520Z,0
2016-11-15T01:02:21.826Z,0
2016-11-15T01:03:31.511Z,0
2016-11-15T01:04:41.785Z,0
2016-11-15T01:05:51.526Z,0
2016-11-15T01:07:01.534Z,0
2016-11-15T01:08:12.095Z,0
2016-11-15T01:09:22.386Z,0
2016-11-15T01:10:32.690Z,0
2016-11-15T01:11:42.991Z,0
2016-11-15T01:12:53.269Z,0
2016-11-15T01:14:03.553Z,0
2016-11-15T01:15:13.861Z,0
2016-11-15T01:16:23.253Z,0
2016-11-15T01:17:33.242Z,0
2016-11-15T01:18:43.232Z,0
2016-11-15T01:19:52.925Z,0
2016-11-15T01:21:02.918Z,0
2016-11-15T01:22:12.955Z,0
2016-11-15T01:23:22.620Z,0
2016-11-15T01:24:32.649Z,0
2016-11-15T01:25:42.936Z,0
2016-11-15T01:26:52.631Z,0
2016-11-15T01:28:02.980Z,0
2016-11-15T01:29:13.299Z,0
2016-11-15T01:30:23.600Z,0
2016-11-15T01:31:33.924Z,0
2016-11-15T01:32:43.020Z,0
2016-11-15T01:33:53.015Z,0
2016-11-15T01:35:03.053Z,0
2016-11-15T01:36:13.341Z,0
2016-11-15T01:37:23.009Z,0
2016-11-15T01:38:33.314Z,0
2016-11-15T01:39:43.031Z,0
2016-11-15T01:40:52.724Z,0
2016-11-15T01:42:02.715Z,0
2016-11-15T01:43:12.704Z,0
2016-11-15T01:44:22.399Z,0
2016-11-15T01:45:32.702Z,0
2016-11-15T01:46:42.391Z,0
2016-11-15T01:47:52.738Z,0
2016-11-15T01:49:02.730Z,0
2016-11-15T01:50:13.028Z,0
2016-11-15T01:51:23.012Z,0
2016-11-15T01:52:33.312Z,0
2016-11-15T01:53:43.309Z,0
2016-11-15T01:54:53.283Z,0
2016-11-15T01:56:03.278Z,0
2016-11-15T01:57:13.264Z,0
2016-11-15T01:58:23.574Z,0
2016-11-15T01:59:33.582Z,0
2016-11-15T02:00:43.893Z,0
2016-11-15T02:01:53.897Z,0
2016-11-15T02:03:03.898Z,0
2016-11-15T02:04:14.247Z,0
2016-11-15T02:05:24.242Z,0
2016-11-15T02:06:34.263Z,0
2016-11-15T02:07:44.577Z,0
2016-11-15T02:08:54.869Z,0
2016-11-15T02:10:05.188Z,0
2016-11-15T02:11:14.874Z,0
2016-11-15T02:12:24.855Z,0
2016-11-15T02:13:34.853Z,0
2016-11-15T02:14:44.188Z,0
2016-11-15T02:15:54.489Z,0
2016-11-15T02:17:04.519Z,0
2016-11-15T02:18:14.816Z,0
2016-11-15T02:19:24.838Z,0
2016-11-15T02:20:35.639Z,0
2016-11-15T02:21:45.943Z,0
2016-11-15T02:22:55.948Z,0
2016-11-15T02:24:06.226Z,0
2016-11-15T02:25:16.229Z,0
2016-11-15T02:26:26.213Z,0
2016-11-15T02:27:36.526Z,0
2016-11-15T02:28:46.504Z,0
2016-11-15T02:29:56.826Z,0
2016-11-15T02:31:06.511Z,0
2016-11-15T02:32:16.524Z,0
2016-11-15T02:33:26.829Z,0
2016-11-15T02:34:37.134Z,0
2016-11-15T02:35:47.436Z,0
2016-11-15T02:36:57.734Z,0
2016-11-15T02:38:08.011Z,0
2016-11-15T02:39:18.332Z,0
2016-11-15T02:40:28.658Z,0
2016-11-15T02:41:38.939Z,0
2016-11-15T02:42:48.922Z,0
2016-11-15T02:43:58.920Z,0
2016-11-15T02:45:08.890Z,0
2016-11-15T02:46:18.563Z,0
2016-11-15T02:47:28.595Z,0
2016-11-15T02:48:38.894Z,0
2016-11-15T02:49:48.856Z,0
2016-11-15T02:50:59.145Z,0
2016-11-15T02:52:09.146Z,0
2016-11-15T02:53:19.455Z,0
2016-11-15T02:54:29.767Z,0
2016-11-15T02:55:40.060Z,0
2016-11-15T02:56:50.373Z,0
2016-11-15T02:58:00.674Z,0
2016-11-15T02:59:10.982Z,0
2016-11-15T03:00:21.282Z,0
2016-11-15T03:01:31.257Z,0
2016-11-15T03:32:53.765Z,0
2016-11-15T03:34:04.052Z,0
2016-11-15T03:35:14.352Z,0
2016-11-15T03:36:24.633Z,0
2016-11-15T03:37:34.914Z,0
2016-11-15T03:38:44.896Z,0
2016-11-15T03:39:54.863Z,0
2016-11-15T03:41:05.160Z,0
2016-11-15T03:42:14.823Z,0
2016-11-15T03:43:24.497Z,0
2016-11-15T03:44:34.490Z,0
2016-11-15T03:45:44.797Z,0
2016-11-15T03:46:54.475Z,0
2016-11-15T03:48:04.779Z,0
2016-11-15T03:49:14.465Z,0
2016-11-15T03:50:24.759Z,0
2016-11-15T03:51:34.429Z,0
2016-11-15T03:52:44.726Z,0
2016-11-15T03:53:54.402Z,0
2016-11-15T03:55:04.714Z,0
2016-11-15T03:56:14.999Z,0
2016-11-15T03:57:24.982Z,0
2016-11-15T03:58:34.967Z,0
2016-11-15T03:59:45.275Z,0
2016-11-15T04:00:55.247Z,0
2016-11-15T04:02:05.279Z,0
2016-11-15T04:03:15.580Z,0
2016-11-15T04:04:25.874Z,0
2016-11-15T04:05:36.172Z,0
2016-11-15T04:06:46.164Z,0
2016-11-15T04:07:56.151Z,0
2016-11-15T04:09:06.131Z,0
2016-11-15T04:10:16.124Z,0
2016-11-15T04:11:26.409Z,0
2016-11-15T04:12:36.713Z,0
2016-11-15T04:13:46.687Z,0
2016-11-15T04:14:56.689Z,0
2016-11-15T04:16:06.050Z,0
2016-11-15T04:17:16.041Z,0
2016-11-15T04:18:26.010Z,0
2016-11-15T04:19:35.982Z,0
2016-11-15T04:20:46.273Z,0
2016-11-15T04:21:56.272Z,0
2016-11-15T04:23:05.950Z,0
2016-11-15T04:24:15.951Z,0
2016-11-15T04:25:26.224Z,0
2016-11-15T04:26:35.927Z,0
2016-11-15T04:27:45.900Z,0
2016-11-15T04:28:56.183Z,0
2016-11-15T04:30:06.166Z,0
2016-11-15T04:31:16.146Z,0
2016-11-15T04:32:26.463Z,0
2016-11-15T04:33:36.278Z,0
2016-11-15T04:34:46.645Z,0
2016-11-15T04:35:56.633Z,0
2016-11-15T04:37:06.863Z,0
2016-11-15T04:38:17.168Z,0
2016-11-15T04:39:27.158Z,0
2016-11-15T04:40:37.453Z,0
2016-11-15T04:41:47.767Z,0
2016-11-15T04:42:57.784Z,0
2016-11-15T04:44:07.447Z,0
2016-11-15T04:45:17.747Z,0
2016-11-15T04:46:28.045Z,0
2016-11-15T04:47:37.414Z,0
2016-11-15T04:48:47.731Z,0
2016-11-15T04:49:58.017Z,0
2016-11-15T04:51:08.328Z,0
2016-11-15T04:52:18.316Z,0
2016-11-15T04:53:27.981Z,0
2016-11-15T04:54:37.949Z,0
2016-11-15T04:55:48.258Z,0
2016-11-15T04:56:57.928Z,0
2016-11-15T04:58:08.202Z,0
2016-11-15T04:59:17.251Z,0
2016-11-15T05:00:27.591Z,0
2016-11-15T05:01:37.560Z,0
2016-11-15T05:02:47.218Z,0
2016-11-15T05:03:57.217Z,0
2016-11-15T05:05:07.510Z,0
2016-11-15T05:06:17.802Z,0
2016-11-15T05:07:27.777Z,0
2016-11-15T05:08:38.056Z,0
2016-11-15T05:09:48.274Z,0
2016-11-15T05:10:59.173Z,0
2016-11-15T05:12:09.895Z,0
2016-11-15T05:13:20.177Z,0
2016-11-15T05:14:30.658Z,0
2016-11-15T05:15:40.989Z,0
2016-11-15T05:16:51.988Z,0
2016-11-15T05:18:02.187Z,0
2016-11-15T05:19:12.455Z,0
2016-11-15T05:20:22.951Z,0
2016-11-15T05:21:32.931Z,0
2016-11-15T05:22:43.221Z,0
2016-11-15T05:23:53.196Z,0
2016-11-15T05:25:05.085Z,0
2016-11-15T05:26:15.972Z,4
2016-11-15T05:27:25.960Z,4
2016-11-15T05:28:36.648Z,0
2016-11-15T05:29:48.063Z,0
2016-11-15T05:30:58.046Z,4
2016-11-15T05:32:08.058Z,4
2016-11-15T05:33:18.335Z,4
2016-11-15T05:34:27.998Z,4
2016-11-15T05:35:37.983Z,4
2016-11-15T05:36:48.284Z,4
2016-11-15T05:37:58.252Z,8
2016-11-15T05:39:08.239Z,8
2016-11-15T05:40:18.230Z,8
2016-11-15T05:41:28.498Z,12
2016-11-15T05:42:38.473Z,16
2016-11-15T05:43:47.841Z,16
2016-11-15T05:44:58.154Z,20
2016-11-15T05:46:08.126Z,24
2016-11-15T05:47:18.105Z,28
2016-11-15T05:48:27.777Z,36
2016-11-15T05:49:37.746Z,44
2016-11-15T05:50:47.737Z,48
2016-11-15T05:51:57.711Z,56
2016-11-15T05:53:07.689Z,64
2016-11-15T05:54:17.959Z,76
2016-11-15T05:55:28.252Z,84
2016-11-15T05:56:38.224Z,100
2016-11-15T05:57:48.502Z,112
2016-11-15T05:58:58.482Z,128
2016-11-15T06:00:08.795Z,136
2016-11-15T06:01:18.158Z,160
2016-11-15T06:02:28.130Z,176
2016-11-15T06:03:38.113Z,196
2016-11-15T06:04:47.775Z,212
2016-11-15T06:05:57.758Z,228
2016-11-15T06:07:07.738Z,256
2016-11-15T06:08:17.733Z,280
2016-11-15T06:09:28.034Z,304
2016-11-15T06:10:38.015Z,332
2016-11-15T06:11:48.302Z,356
2016-11-15T06:12:58.582Z,384
2016-11-15T06:14:08.870Z,412
2016-11-15T06:15:19.146Z,444
2016-11-15T06:16:29.119Z,476
2016-11-15T06:17:39.390Z,508
2016-11-15T06:18:49.688Z,536
2016-11-15T06:19:59.985Z,568
2016-11-15T06:21:10.290Z,600
2016-11-15T06:22:20.601Z,632
2016-11-15T06:23:30.579Z,668
2016-11-15T06:24:40.554Z,700
2016-11-15T06:25:50.845Z,724
2016-11-15T06:27:01.128Z,728
2016-11-15T06:28:11.396Z,748
2016-11-15T06:29:21.392Z,788
2016-11-15T06:30:31.052Z,804
2016-11-15T06:31:41.326Z,836
2016-11-15T06:32:51.316Z,920
2016-11-15T06:34:01.604Z,1012
2016-11-15T06:35:11.872Z,1052
2016-11-15T06:36:22.178Z,1092
2016-11-15T06:37:32.152Z,1132
2016-11-15T06:38:42.125Z,1172
2016-11-15T06:39:52.396Z,1212
2016-11-15T06:41:02.365Z,1256
2016-11-15T06:42:12.034Z,1296
2016-11-15T06:43:22.300Z,1348
2016-11-15T06:44:32.271Z,1396
2016-11-15T06:45:42.569Z,1452
2016-11-15T06:46:52.541Z,1500
2016-11-15T06:48:02.527Z,1556
2016-11-15T06:49:12.498Z,1604
2016-11-15T06:50:22.161Z,1660
2016-11-15T06:51:32.469Z,1704
2016-11-15T06:52:42.470Z,1752
2016-11-15T06:53:52.768Z,1780
2016-11-15T06:55:03.057Z,1824
2016-11-15T06:56:13.353Z,1872
2016-11-15T06:57:23.346Z,1920
2016-11-15T06:58:33.358Z,1968
2016-11-15T06:59:43.655Z,2016
2016-11-15T07:00:53.627Z,2064
2016-11-15T07:02:03.921Z,2124
2016-11-15T07:03:13.909Z,2172
2016-11-15T07:04:24.210Z,2228
2016-11-15T07:05:34.605Z,2272
2016-11-15T07:06:44.902Z,2296
2016-11-15T07:07:54.569Z,2332
2016-11-15T07:09:04.866Z,2356
2016-11-15T07:10:14.536Z,2392
2016-11-15T07:11:24.736Z,2436
2016-11-15T07:12:35.026Z,2476
2016-11-15T07:13:45.016Z,2508
2016-11-15T07:14:54.980Z,2548
2016-11-15T07:16:05.271Z,2604
2016-11-15T07:17:14.951Z,2656
2016-11-15T07:18:25.234Z,2692
2016-11-15T07:19:35.533Z,2736
2016-11-15T07:20:45.501Z,2816
2016-11-15T07:21:55.479Z,2920
2016-11-15T07:23:05.439Z,2996
2016-11-15T07:24:15.729Z,2928
2016-11-15T07:25:26.038Z,2948
2016-11-15T07:26:36.332Z,3000
2016-11-15T07:27:46.615Z,3028
2016-11-15T07:28:56.585Z,3036
2016-11-15T07:30:06.884Z,3052
2016-11-15T07:31:17.185Z,3080
2016-11-15T07:32:27.181Z,3104
2016-11-15T07:33:36.244Z,3128
2016-11-15T07:34:46.243Z,3156
2016-11-15T07:35:56.541Z,3196
2016-11-15T07:37:06.548Z,3248
2016-11-15T07:38:16.758Z,3272
2016-11-15T07:39:26.736Z,3272
2016-11-15T07:40:36.733Z,3336
2016-11-15T07:41:46.713Z,3400
2016-11-15T07:42:56.695Z,3456
2016-11-15T07:44:06.691Z,3488
2016-11-15T07:45:16.678Z,3548
2016-11-15T07:46:26.981Z,3624
2016-11-15T07:47:37.270Z,3688
2016-11-15T07:48:47.243Z,3752
2016-11-15T07:49:57.737Z,3808
2016-11-15T07:51:08.188Z,3808
2016-11-15T07:52:18.465Z,3852
2016-11-15T07:53:28.513Z,3944
2016-11-15T07:54:38.481Z,4024
2016-11-15T07:55:48.783Z,4076
2016-11-15T07:56:59.093Z,4164
2016-11-15T07:58:09.074Z,4272
2016-11-15T07:59:19.051Z,4260
2016-11-15T08:00:28.727Z,4396
2016-11-15T08:01:39.050Z,4412
2016-11-15T08:02:49.019Z,4524
2016-11-15T08:03:59.291Z,4600
2016-11-15T08:05:09.281Z,4628
2016-11-15T08:06:19.259Z,4660
2016-11-15T08:07:29.235Z,4652
2016-11-15T08:08:39.227Z,4600
2016-11-15T08:09:49.556Z,4580
2016-11-15T08:10:59.857Z,4536
2016-11-15T08:12:10.142Z,4524
2016-11-15T08:13:19.815Z,4556
2016-11-15T08:14:30.115Z,4612
2016-11-15T08:15:40.083Z,4632
2016-11-15T08:16:49.764Z,4684
2016-11-15T08:18:00.047Z,4744
2016-11-15T08:19:10.417Z,4752
2016-11-15T08:20:19.783Z,4708
2016-11-15T08:21:30.061Z,4768
2016-11-15T08:22:40.352Z,4728
2016-11-15T08:23:50.160Z,4832
2016-11-15T08:25:00.459Z,4912
2016-11-15T08:26:10.754Z,4892
2016-11-15T08:27:20.720Z,4916
2016-11-15T08:28:30.701Z,4976
2016-11-15T08:29:40.968Z,5040
2016-11-15T08:30:50.954Z,5080
2016-11-15T08:32:01.221Z,5140
2016-11-15T08:33:11.195Z,5184
2016-11-15T08:34:21.174Z,5212
2016-11-15T08:35:31.172Z,5152
2016-11-15T08:36:41.523Z,5096
2016-11-15T08:37:51.493Z,5092
2016-11-15T08:39:01.776Z,5276
2016-11-15T08:40:11.738Z,5296
2016-11-15T08:41:22.257Z,5296
2016-11-15T08:42:32.563Z,5288
2016-11-15T08:43:42.878Z,5276
2016-11-15T08:44:52.883Z,5428
2016-11-15T08:46:03.182Z,5404
2016-11-15T08:47:13.164Z,5344
2016-11-15T08:48:23.450Z,5400
2016-11-15T08:49:33.736Z,5240
2016-11-15T08:50:44.030Z,5152
2016-11-15T08:51:53.996Z,4696
2016-11-15T08:53:04.322Z,3708
2016-11-15T08:54:14.610Z,3408
2016-11-15T08:55:24.897Z,4232
2016-11-15T08:56:35.180Z,5352
2016-11-15T08:57:45.467Z,4912
2016-11-15T08:58:55.757Z,4656
2016-11-15T09:00:05.730Z,6544
2016-11-15T09:01:15.720Z,7132
2016-11-15T09:02:25.692Z,6600
2016-11-15T09:03:34.735Z,6684
2016-11-15T09:04:45.011Z,6332
2016-11-15T09:05:54.693Z,7876
2016-11-15T09:07:04.664Z,9680
2016-11-15T09:08:14.636Z,9256
2016-11-15T09:09:24.941Z,7916
2016-11-15T09:10:35.231Z,8160
2016-11-15T09:11:45.244Z,8400
2016-11-15T09:12:55.536Z,8036
2016-11-15T09:14:05.886Z,7564
2016-11-15T09:15:15.876Z,7464
2016-11-15T09:16:25.839Z,8604
2016-11-15T09:17:35.816Z,8352
2016-11-15T09:18:45.522Z,9636
2016-11-15T09:19:55.181Z,10684
2016-11-15T09:21:05.473Z,7940
2016-11-15T09:22:15.767Z,7432
2016-11-15T09:23:25.739Z,6728
2016-11-15T09:24:35.748Z,7096
2016-11-15T09:25:45.745Z,6900
2016-11-15T09:26:56.018Z,7328
2016-11-15T09:28:06.005Z,7252
2016-11-15T09:29:16.297Z,7076
2016-11-15T09:30:26.588Z,6892
2016-11-15T09:31:36.556Z,6268
2016-11-15T09:32:46.861Z,7248
2016-11-15T09:33:57.735Z,6808
2016-11-15T09:35:07.722Z,6360
2016-11-15T09:36:17.708Z,5992
2016-11-15T09:37:27.694Z,6072
2016-11-15T09:38:38.001Z,6196
2016-11-15T09:39:48.034Z,7052
2016-11-15T09:40:58.035Z,7364
2016-11-15T09:42:07.999Z,7016
2016-11-15T09:43:17.966Z,6548
2016-11-15T09:44:28.256Z,6568
2016-11-15T09:45:38.547Z,6448
2016-11-15T09:46:49.043Z,5220
2016-11-15T09:47:58.732Z,5828
2016-11-15T09:49:08.733Z,5836
2016-11-15T09:50:19.032Z,6044
2016-11-15T09:51:29.004Z,6088
2016-11-15T09:52:39.300Z,6468
2016-11-15T09:53:49.591Z,7116
2016-11-15T09:54:59.893Z,6936
2016-11-15T09:56:10.193Z,6920
2016-11-15T09:57:20.496Z,6588
2016-11-15T09:58:30.473Z,6728
2016-11-15T09:59:40.769Z,6968
2016-11-15T10:00:50.797Z,7188
2016-11-15T10:02:00.794Z,6688
2016-11-15T10:03:11.071Z,6376
2016-11-15T10:04:20.744Z,6404
2016-11-15T10:05:31.039Z,6616
2016-11-15T10:06:41.333Z,6748
2016-11-15T10:07:51.627Z,6608
2016-11-15T10:09:01.290Z,6908
2016-11-15T10:10:11.302Z,6992
2016-11-15T10:11:20.967Z,6728
2016-11-15T10:12:31.523Z,7168
2016-11-15T10:13:41.503Z,7616
2016-11-15T10:14:51.816Z,7240
2016-11-15T10:16:01.488Z,8240
2016-11-15T10:17:11.478Z,8428
2016-11-15T10:18:21.780Z,8340
2016-11-15T10:19:31.449Z,8220
2016-11-15T10:20:41.736Z,7340
2016-11-15T10:21:52.033Z,7096
2016-11-15T10:23:02.341Z,8064
2016-11-15T10:24:12.633Z,7944
2016-11-15T10:25:22.302Z,8104
2016-11-15T10:26:32.624Z,8044
2016-11-15T10:27:42.591Z,7752
2016-11-15T10:28:52.888Z,7580
2016-11-15T10:30:03.200Z,7444
2016-11-15T10:31:13.496Z,7064
2016-11-15T10:32:23.801Z,6708
2016-11-15T10:33:33.790Z,6520
2016-11-15T10:34:43.776Z,6340
2016-11-15T10:35:54.075Z,6232
2016-11-15T10:37:04.061Z,6208
2016-11-15T10:38:14.070Z,6120
2016-11-15T10:39:24.295Z,6072
2016-11-15T10:40:34.595Z,6128
2016-11-15T10:41:44.579Z,6096
2016-11-15T10:42:54.268Z,5860
2016-11-15T10:44:04.594Z,5728
2016-11-15T10:45:14.902Z,5620
2016-11-15T10:46:25.232Z,5608
2016-11-15T10:47:35.567Z,5640
2016-11-15T10:48:45.556Z,5496
2016-11-15T10:49:55.845Z,5412
2016-11-15T10:51:06.157Z,5356
2016-11-15T10:52:16.144Z,5348
2016-11-15T10:53:26.126Z,5340
2016-11-15T10:54:35.188Z,5372
2016-11-15T10:55:45.514Z,5404
2016-11-15T10:56:55.809Z,5388
2016-11-15T10:58:05.829Z,5452
2016-11-15T10:59:15.820Z,5440
2016-11-15T11:00:26.131Z,5356
2016-11-15T11:01:36.430Z,5316
2016-11-15T11:02:46.732Z,5312
2016-11-15T11:03:57.041Z,5320
2016-11-15T11:05:07.344Z,5376
2016-11-15T11:06:17.651Z,5404
2016-11-15T11:07:27.355Z,5416
2016-11-15T11:08:38.045Z,5376
2016-11-15T11:09:48.699Z,5140
2016-11-15T11:10:59.217Z,5028
2016-11-15T11:12:09.189Z,5064
2016-11-15T11:13:19.927Z,5048
2016-11-15T11:14:30.641Z,5044
2016-11-15T11:15:40.943Z,4940
2016-11-15T11:16:51.248Z,4976
2016-11-15T11:18:01.237Z,5012
2016-11-15T11:19:11.220Z,4864
2016-11-15T11:20:22.009Z,5016
2016-11-15T11:21:32.756Z,5104
2016-11-15T11:22:43.068Z,5388
2016-11-15T11:23:53.365Z,5476
2016-11-15T11:25:03.355Z,5796
2016-11-15T11:26:13.357Z,6436
2016-11-15T11:27:24.411Z,6408
2016-11-15T11:28:34.636Z,6296
2016-11-15T11:29:46.589Z,6324
2016-11-15T11:30:56.570Z,7052
2016-11-15T11:32:06.877Z,7040
2016-11-15T11:33:17.165Z,6140
2016-11-15T11:34:27.713Z,5868
2016-11-15T11:46:26.751Z,3572
2016-11-15T11:49:50.586Z,3416
2016-11-15T11:51:00.872Z,3348
2016-11-15T14:36:07.536Z,840
2016-11-15T14:37:17.513Z,804
2016-11-15T14:38:27.190Z,772
2016-11-15T14:39:37.157Z,748
2016-11-15T14:40:47.138Z,716
2016-11-15T14:41:57.436Z,688
2016-11-15T14:43:07.447Z,656
2016-11-15T14:44:17.757Z,632
2016-11-15T14:45:28.039Z,600
2016-11-15T14:46:38.327Z,580
2016-11-15T14:47:48.618Z,560
2016-11-15T14:48:58.611Z,540
2016-11-15T14:50:08.583Z,516
2016-11-15T14:51:18.878Z,496
2016-11-15T14:52:28.861Z,476
2016-11-15T14:53:38.538Z,456
2016-11-15T14:54:48.515Z,436
2016-11-15T14:55:58.506Z,416
2016-11-15T14:57:08.488Z,388
2016-11-15T14:58:18.465Z,368
2016-11-15T14:59:28.465Z,344
2016-11-15T15:00:38.445Z,324
2016-11-15T15:01:48.470Z,300
2016-11-15T15:02:58.760Z,284
2016-11-15T15:04:08.149Z,272
2016-11-15T15:05:18.435Z,252
2016-11-15T15:06:28.427Z,236
2016-11-15T15:07:38.428Z,216
2016-11-15T15:08:48.728Z,200
2016-11-15T15:09:59.059Z,184
2016-11-15T15:11:09.036Z,168
2016-11-15T15:12:18.690Z,152
2016-11-15T15:13:28.669Z,136
2016-11-15T15:14:38.962Z,124
2016-11-15T15:15:48.947Z,112
2016-11-15T15:16:59.299Z,100
2016-11-15T15:18:09.589Z,88
2016-11-15T15:19:19.264Z,76
2016-11-15T15:20:29.547Z,68
2016-11-15T15:21:39.541Z,56
2016-11-15T15:22:49.218Z,52
2016-11-15T15:23:59.228Z,40
2016-11-15T15:25:09.540Z,40
2016-11-15T15:26:19.532Z,32
2016-11-15T15:27:29.516Z,28
2016-11-15T15:28:39.511Z,24
2016-11-15T15:29:49.488Z,20
2016-11-15T15:30:59.457Z,16
2016-11-15T15:32:09.741Z,12
2016-11-15T15:33:19.725Z,12
2016-11-15T15:34:29.726Z,8
2016-11-15T15:35:40.034Z,8
2016-11-15T15:36:50.059Z,4
2016-11-15T15:37:59.736Z,8
2016-11-15T15:39:10.068Z,4
2016-11-15T15:40:20.374Z,4
2016-11-15T15:41:30.050Z,4
2016-11-15T15:42:39.769Z,0
2016-11-15T15:43:49.152Z,0
2016-11-15T15:44:59.461Z,4
2016-11-15T15:46:09.751Z,4
2016-11-15T15:47:20.041Z,4
2016-11-15T15:48:30.337Z,4
2016-11-15T15:49:40.320Z,0
2016-11-15T15:50:50.625Z,0
2016-11-15T15:52:00.930Z,0
2016-11-15T15:53:11.228Z,0
2016-11-15T15:54:21.240Z,0
2016-11-15T15:55:31.212Z,0
2016-11-15T15:56:41.209Z,0
2016-11-15T15:57:51.270Z,0
2016-11-15T15:59:01.316Z,0
2016-11-15T16:00:11.659Z,0
2016-11-15T16:01:21.997Z,0
2016-11-15T16:02:32.006Z,0
2016-11-15T16:03:42.341Z,0
2016-11-15T16:04:52.701Z,0
2016-11-15T16:06:03.009Z,0
2016-11-15T16:07:13.373Z,0
2016-11-15T16:08:22.797Z,0
2016-11-15T16:09:32.856Z,0
2016-11-15T16:10:42.953Z,0
2016-11-15T16:11:52.649Z,0
2016-11-15T16:13:02.677Z,0
2016-11-15T16:14:12.748Z,0
2016-11-15T16:15:22.844Z,0
2016-11-15T16:16:33.216Z,0
2016-11-15T16:17:43.610Z,0
2016-11-15T16:18:53.977Z,0
2016-11-15T16:20:04.305Z,0
2016-11-15T16:21:14.630Z,0
2016-11-15T16:22:24.930Z,0
2016-11-15T16:23:35.247Z,0
2016-11-15T16:24:45.283Z,0
2016-11-15T16:25:55.291Z,0
2016-11-15T16:27:05.297Z,0
2016-11-15T16:28:14.989Z,0
2016-11-15T16:29:25.287Z,0
2016-11-15T16:30:35.288Z,0
2016-11-15T16:31:45.319Z,0
2016-11-15T16:32:55.660Z,0
2016-11-15T16:34:05.978Z,0
2016-11-15T16:35:16.304Z,0
2016-11-15T16:36:26.307Z,0
2016-11-15T16:37:36.635Z,0
2016-11-15T16:38:46.629Z,0
2016-11-15T16:39:56.948Z,0
2016-11-15T16:41:07.269Z,0
2016-11-15T16:42:17.569Z,0
2016-11-15T16:43:27.865Z,0
2016-11-15T16:44:38.284Z,0
2016-11-15T16:45:48.289Z,0
2016-11-15T16:46:58.675Z,0
2016-11-15T16:48:09.025Z,0
2016-11-15T16:49:18.408Z,0
2016-11-15T16:50:28.721Z,0
2016-11-15T16:51:39.077Z,0
2016-11-15T16:52:48.461Z,0
2016-11-15T16:53:58.489Z,0
2016-11-15T16:55:08.578Z,0
2016-11-15T16:56:18.940Z,0
2016-11-15T16:57:29.224Z,0
2016-11-15T16:58:39.262Z,0
2016-11-15T16:59:49.625Z,0
2016-11-15T17:00:59.645Z,0
2016-11-15T17:02:09.757Z,0
2016-11-15T17:03:19.842Z,0
2016-11-15T17:04:30.243Z,0
2016-11-15T17:05:40.593Z,0
2016-11-15T17:06:50.966Z,0
2016-11-15T17:08:01.301Z,0
2016-11-15T17:09:11.019Z,0
2016-11-15T17:10:21.031Z,0
2016-11-15T17:11:31.022Z,0
2016-11-15T17:12:41.426Z,0
2016-11-15T17:13:51.489Z,0
2016-11-15T17:15:01.512Z,0
2016-11-15T17:16:11.983Z,0
2016-11-15T17:17:21.826Z,0
2016-11-15T17:18:32.141Z,0
2016-11-15T17:19:42.166Z,0
2016-11-15T17:20:51.929Z,0
2016-11-15T17:22:02.341Z,0
2016-11-15T17:23:12.712Z,0
2016-11-15T17:24:23.129Z,0
2016-11-15T17:25:33.470Z,0
2016-11-15T17:26:43.496Z,0
2016-11-15T17:27:53.535Z,0
2016-11-15T17:29:03.533Z,0
2016-11-15T17:30:13.521Z,0
2016-11-15T17:31:23.621Z,0
2016-11-15T17:32:33.563Z,0
2016-11-15T17:33:43.083Z,0
2016-11-15T17:34:53.183Z,0
2016-11-15T17:36:03.580Z,0
2016-11-15T17:37:14.125Z,0
2016-11-15T17:38:23.933Z,0
2016-11-15T17:39:33.741Z,0
2016-11-15T17:40:44.167Z,0
2016-11-15T17:41:54.271Z,0
2016-11-15T17:43:04.840Z,0
2016-11-15T17:44:15.234Z,0
2016-11-15T17:45:25.508Z,0
2016-11-15T17:46:35.975Z,0
2016-11-15T17:47:46.558Z,0
2016-11-15T17:48:56.796Z,0
2016-11-15T17:50:07.329Z,0
2016-11-15T17:51:17.785Z,0
2016-11-15T17:52:28.012Z,0
2016-11-15T17:53:38.294Z,0
2016-11-15T17:54:48.855Z,0
2016-11-15T17:55:59.596Z,0
2016-11-15T17:57:09.542Z,0
2016-11-15T17:58:19.852Z,0
2016-11-15T17:59:29.844Z,0
2016-11-15T18:00:39.734Z,0
2016-11-15T18:01:50.469Z,0
2016-11-15T18:03:00.839Z,0
2016-11-15T18:04:11.566Z,0
2016-11-15T18:05:21.963Z,0
2016-11-15T18:06:32.389Z,0
2016-11-15T18:07:42.159Z,0
2016-11-15T18:08:52.160Z,0
2016-11-15T18:10:02.585Z,0
2016-11-15T18:11:12.580Z,0
2016-11-15T18:12:22.938Z,0
2016-11-15T18:13:32.971Z,0
2016-11-15T18:14:42.947Z,0
2016-11-15T18:15:53.294Z,0
2016-11-15T18:17:02.959Z,0
2016-11-15T18:18:13.343Z,0
2016-11-15T18:19:23.676Z,0
2016-11-15T18:20:33.965Z,0
2016-11-15T18:21:44.332Z,0
2016-11-15T18:22:54.636Z,0
2016-11-15T18:24:04.955Z,0
2016-11-15T18:25:14.927Z,0
2016-11-15T18:26:25.235Z,0
2016-11-15T18:27:35.303Z,0
2016-11-15T18:28:45.628Z,0
2016-11-15T18:29:55.942Z,0
2016-11-15T18:31:05.938Z,0
2016-11-15T18:32:15.916Z,0
2016-11-15T18:33:25.917Z,0
2016-11-15T18:34:36.208Z,0
2016-11-15T18:35:45.595Z,0
2016-11-15T18:36:55.867Z,0
2016-11-15T18:38:05.847Z,0
2016-11-15T18:39:16.168Z,0
2016-11-15T18:40:26.149Z,0
2016-11-15T18:41:36.138Z,0
2016-11-15T18:42:46.501Z,0
2016-11-15T18:43:56.828Z,0
2016-11-15T18:45:07.143Z,0
2016-11-15T18:46:17.137Z,0
2016-11-15T18:47:27.110Z,0
2016-11-15T18:48:36.791Z,0
2016-11-15T18:49:47.079Z,0
2016-11-15T18:50:57.394Z,0
2016-11-15T18:52:07.398Z,0
2016-11-15T18:53:17.077Z,0
2016-11-15T18:54:27.375Z,0
2016-11-15T18:55:37.667Z,0
2016-11-15T18:56:47.649Z,0
2016-11-15T18:57:57.651Z,0
2016-11-15T18:59:07.657Z,0
2016-11-15T19:00:17.587Z,0
2016-11-15T19:01:27.603Z,0
2016-11-15T19:02:37.634Z,0
2016-11-15T19:03:47.326Z,0
2016-11-15T19:04:57.621Z,0
2016-11-15T19:06:07.952Z,0
2016-11-15T19:07:18.256Z,0
2016-11-15T19:08:28.551Z,0
2016-11-15T19:09:38.851Z,0
2016-11-15T19:10:48.865Z,0
2016-11-15T19:11:59.168Z,0
2016-11-15T19:13:09.150Z,0
2016-11-15T19:14:19.125Z,0
2016-11-15T19:15:29.445Z,0
2016-11-15T19:16:39.765Z,0
2016-11-15T19:17:49.739Z,0
2016-11-15T19:19:00.035Z,0
2016-11-15T19:20:10.075Z,0
2016-11-15T19:21:20.384Z,0
2016-11-15T19:22:30.668Z,0
2016-11-15T19:23:40.745Z,0
2016-11-15T19:24:51.051Z,0
2016-11-15T19:26:00.732Z,0
2016-11-15T19:27:11.032Z,0
2016-11-15T19:28:21.328Z,0
2016-11-15T19:29:31.869Z,0
2016-11-15T19:30:41.861Z,0
2016-11-15T19:31:52.178Z,0
2016-11-15T19:33:02.479Z,0
2016-11-15T19:34:12.781Z,0
2016-11-15T19:35:22.757Z,0
2016-11-15T19:36:32.772Z,0
2016-11-15T19:37:43.076Z,0
2016-11-15T19:38:53.413Z,0
2016-11-15T19:40:03.734Z,0
2016-11-15T19:41:13.745Z,0
2016-11-15T19:42:23.427Z,0
2016-11-15T19:43:33.691Z,0
2016-11-15T19:44:43.979Z,0
2016-11-15T19:45:53.968Z,0
2016-11-15T19:47:03.962Z,0
2016-11-15T19:48:13.627Z,0
2016-11-15T19:49:23.963Z,0
2016-11-15T19:50:34.255Z,0
2016-11-15T19:51:44.544Z,0
2016-11-15T19:52:54.830Z,0
2016-11-15T19:54:04.229Z,0
2016-11-15T19:55:14.550Z,0
2016-11-15T19:56:24.846Z,0
2016-11-15T19:57:34.839Z,0
2016-11-15T19:58:45.143Z,0
2016-11-15T19:59:55.470Z,0
2016-11-15T20:01:05.455Z,0
2016-11-15T20:02:15.426Z,0
2016-11-15T20:03:25.728Z,0